createdAt,value
2018-09-13T00:01:16.712Z,13.70
2018-09-13T00:03:44.231Z,14.37
2018-09-13T00:06:14.391Z,16.03
2018-09-13T00:08:41.809Z,14.70
2018-09-13T00:11:09.296Z,16.17
2018-09-13T00:13:36.933Z,15.80
2018-09-13T00:16:04.424Z,16.30
2018-09-13T00:18:32.034Z,15.77
2018-09-13T00:20:59.567Z,15.90
2018-09-13T00:23:27.541Z,16.57
2018-09-13T00:25:55.192Z,15.37
2018-09-13T00:28:22.704Z,16.90
2018-09-13T00:30:50.193Z,15.20
2018-09-13T00:33:17.809Z,16.30
2018-09-13T00:35:45.286Z,16.00
2018-09-13T00:38:13.222Z,13.80
2018-09-13T00:40:40.805Z,13.50
2018-09-13T00:43:08.441Z,16.33
2018-09-13T00:45:36.215Z,14.73
2018-09-13T00:48:03.899Z,18.40
2018-09-13T00:50:31.517Z,17.20
2018-09-13T00:52:59.033Z,13.23
2018-09-13T00:55:26.571Z,16.23
2018-09-13T00:57:54.927Z,18.10
2018-09-13T01:00:23.164Z,16.23
2018-09-13T01:02:50.581Z,15.47
2018-09-13T01:05:18.075Z,13.17
2018-09-13T01:07:45.649Z,13.63
2018-09-13T01:10:13.907Z,12.93
2018-09-13T01:12:41.388Z,14.77
2018-09-13T01:15:09.712Z,14.60
2018-09-13T01:17:37.260Z,17.63
2018-09-13T01:20:04.822Z,13.30
2018-09-13T01:22:32.333Z,17.07
2018-09-13T01:24:59.789Z,14.80
2018-09-13T01:27:27.802Z,15.40
2018-09-13T01:29:56.202Z,14.30
2018-09-13T01:32:23.877Z,13.97
2018-09-13T01:34:51.933Z,14.10
2018-09-13T01:37:19.571Z,11.67
2018-09-13T01:39:47.110Z,13.43
2018-09-13T01:42:14.759Z,14.60
2018-09-13T01:44:42.582Z,14.93
2018-09-13T01:47:10.918Z,13.33
2018-09-13T01:49:38.568Z,16.23
2018-09-13T01:52:06.276Z,12.83
2018-09-13T01:54:33.730Z,19.00
2018-09-13T01:57:01.294Z,12.70
2018-09-13T01:59:29.380Z,13.47
2018-09-13T02:01:57.092Z,11.60
2018-09-13T02:04:25.221Z,15.00
2018-09-13T02:06:53.097Z,15.27
2018-09-13T02:09:20.653Z,16.33
2018-09-13T02:11:48.152Z,12.37
2018-09-13T02:14:15.679Z,11.30
2018-09-13T02:16:43.155Z,13.33
2018-09-13T02:19:10.628Z,10.20
2018-09-13T02:21:38.110Z,13.23
2018-09-13T02:24:05.377Z,10.93
2018-09-13T02:26:32.926Z,12.83
2018-09-13T02:29:00.666Z,13.47
2018-09-13T02:31:28.115Z,11.77
2018-09-13T02:33:55.686Z,16.43
2018-09-13T02:36:23.175Z,14.77
2018-09-13T02:38:50.710Z,14.20
2018-09-13T02:41:18.092Z,13.23
2018-09-13T02:43:45.543Z,11.70
2018-09-13T02:46:13.321Z,15.13
2018-09-13T02:48:41.329Z,13.73
2018-09-13T02:51:08.853Z,16.57
2018-09-13T02:53:36.481Z,13.43
2018-09-13T02:56:03.967Z,13.20
2018-09-13T02:58:31.664Z,11.70
2018-09-13T03:00:59.185Z,15.50
2018-09-13T03:03:26.683Z,9.60
2018-09-13T03:05:54.308Z,11.07
2018-09-13T03:08:21.844Z,14.80
2018-09-13T03:10:49.310Z,9.63
2018-09-13T03:13:16.880Z,12.43
2018-09-13T03:15:44.388Z,18.50
2018-09-13T03:18:11.791Z,14.17
2018-09-13T03:20:39.514Z,18.53
2018-09-13T03:23:07.051Z,11.60
2018-09-13T03:25:34.678Z,12.80
2018-09-13T03:28:02.403Z,12.37
2018-09-13T03:30:30.541Z,12.40
2018-09-13T03:32:59.221Z,10.80
2018-09-13T03:35:26.762Z,10.43
2018-09-13T03:37:54.556Z,11.90
2018-09-13T03:40:22.181Z,8.50
2018-09-13T03:42:49.981Z,11.03
2018-09-13T03:45:17.423Z,14.07
2018-09-13T03:47:44.989Z,12.50
2018-09-13T03:50:12.520Z,9.00
2018-09-13T03:52:40.044Z,9.20
2018-09-13T03:55:07.561Z,10.50
2018-09-13T03:57:36.912Z,12.10
2018-09-13T04:00:04.628Z,9.20
2018-09-13T04:02:32.111Z,11.33
2018-09-13T04:04:59.565Z,9.40
2018-09-13T04:07:27.180Z,8.93
2018-09-13T04:09:54.751Z,9.63
2018-09-13T04:12:22.555Z,10.30
2018-09-13T04:14:50.108Z,12.00
2018-09-13T04:17:17.618Z,10.63
2018-09-13T04:19:46.051Z,8.73
2018-09-13T04:22:14.411Z,8.07
2018-09-13T04:24:42.589Z,9.43
2018-09-13T04:27:10.390Z,10.10
2018-09-13T04:29:37.935Z,7.03
2018-09-13T04:32:05.512Z,13.73
2018-09-13T04:34:33.053Z,10.10
2018-09-13T04:37:00.544Z,17.90
2018-09-13T04:39:28.194Z,9.77
2018-09-13T04:41:55.746Z,9.60
2018-09-13T04:44:23.621Z,8.27
2018-09-13T04:46:51.102Z,10.07
2018-09-13T04:49:18.594Z,9.80
2018-09-13T04:51:46.151Z,10.30
2018-09-13T04:54:14.612Z,7.20
2018-09-13T04:56:42.994Z,10.40
2018-09-13T04:59:10.668Z,16.17
2018-09-13T05:01:39.972Z,7.63
2018-09-13T05:04:07.473Z,14.27
2018-09-13T05:06:35.134Z,10.30
2018-09-13T05:09:04.223Z,8.60
2018-09-13T05:11:31.714Z,8.40
2018-09-13T05:13:59.253Z,9.57
2018-09-13T05:16:26.873Z,11.53
2018-09-13T05:18:54.342Z,6.90
2018-09-13T05:21:23.173Z,11.13
2018-09-13T05:23:50.705Z,7.90
2018-09-13T05:26:18.223Z,9.13
2018-09-13T05:28:45.769Z,9.13
2018-09-13T05:31:13.343Z,6.97
2018-09-13T05:33:40.879Z,14.47
2018-09-13T05:36:08.563Z,6.30
2018-09-13T05:38:36.067Z,6.37
2018-09-13T05:41:03.705Z,6.67
2018-09-13T05:43:31.184Z,9.00
2018-09-13T05:45:58.651Z,9.17
2018-09-13T05:48:26.224Z,7.00
2018-09-13T05:50:53.728Z,7.27
2018-09-13T05:53:21.271Z,6.80
2018-09-13T05:55:48.794Z,6.93
2018-09-13T05:58:16.764Z,7.30
2018-09-13T06:00:49.968Z,8.03
2018-09-13T06:03:17.520Z,6.03
2018-09-13T06:05:52.180Z,12.23
2018-09-13T06:08:26.988Z,17.87
2018-09-13T06:10:55.494Z,7.70
2018-09-13T06:13:32.045Z,12.70
2018-09-13T06:16:00.058Z,14.23
2018-09-13T06:18:29.836Z,12.13
2018-09-13T06:20:57.548Z,8.90
2018-09-13T06:23:25.079Z,10.03
2018-09-13T06:25:52.468Z,11.40
2018-09-13T06:28:20.034Z,6.00
2018-09-13T06:30:48.079Z,8.87
2018-09-13T06:33:16.320Z,8.27
2018-09-13T06:35:43.830Z,6.00
2018-09-13T06:38:11.439Z,11.97
2018-09-13T06:40:38.945Z,5.40
2018-09-13T06:43:06.478Z,5.07
2018-09-13T06:45:34.030Z,9.23
2018-09-13T06:48:01.524Z,5.87
2018-09-13T06:50:29.037Z,6.00
2018-09-13T06:52:56.612Z,8.00
2018-09-13T06:55:24.116Z,8.87
2018-09-13T06:57:51.693Z,7.10
2018-09-13T07:00:19.166Z,7.93
2018-09-13T07:02:46.711Z,9.20
2018-09-13T07:05:14.204Z,7.07
2018-09-13T07:07:41.732Z,4.80
2018-09-13T07:10:09.343Z,6.60
2018-09-13T07:12:37.435Z,5.53
2018-09-13T07:15:05.620Z,5.07
2018-09-13T07:17:33.175Z,5.33
2018-09-13T07:20:00.812Z,8.73
2018-09-13T07:22:28.436Z,4.60
2018-09-13T07:24:55.873Z,5.03
2018-09-13T07:27:30.457Z,7.63
2018-09-13T07:30:01.801Z,17.37
2018-09-13T07:32:35.482Z,9.63
2018-09-13T07:35:08.191Z,9.90
2018-09-13T07:37:36.219Z,11.53
2018-09-13T07:40:07.671Z,13.53
2018-09-13T07:42:35.646Z,14.07
2018-09-13T07:45:03.594Z,11.13
2018-09-13T07:50:34.235Z,14.90
2018-09-13T07:53:15.753Z,17.23
2018-09-13T07:55:49.702Z,13.83
2018-09-13T07:58:17.291Z,7.27
2018-09-13T08:00:44.876Z,5.67
2018-09-13T08:03:12.364Z,4.53
2018-09-13T08:05:40.116Z,9.23
2018-09-13T08:08:07.660Z,6.90
2018-09-13T08:10:37.199Z,9.17
2018-09-13T08:13:04.792Z,7.47
2018-09-13T08:15:32.352Z,9.80
2018-09-13T08:17:59.854Z,5.80
2018-09-13T08:20:27.340Z,14.63
2018-09-13T08:22:54.824Z,6.53
2018-09-13T08:25:22.471Z,9.50
2018-09-13T08:27:50.084Z,6.00
2018-09-13T08:30:17.832Z,11.60
2018-09-13T08:32:45.255Z,6.13
2018-09-13T08:35:12.887Z,7.10
2018-09-13T08:37:40.170Z,5.80
2018-09-13T08:40:08.497Z,5.53
2018-09-13T08:42:35.980Z,7.63
2018-09-13T08:45:03.575Z,4.67
2018-09-13T08:47:31.162Z,6.60
2018-09-13T08:49:58.754Z,16.00
2018-09-13T08:52:26.419Z,12.43
2018-09-13T08:54:54.354Z,10.33
2018-09-13T08:57:23.408Z,13.20
2018-09-13T08:59:50.937Z,7.90
2018-09-13T09:02:18.644Z,6.50
2018-09-13T09:04:46.621Z,8.60
2018-09-13T09:07:14.418Z,9.37
2018-09-13T09:09:42.640Z,15.03
2018-09-13T09:12:10.483Z,11.53
2018-09-13T09:14:38.749Z,6.80
2018-09-13T09:17:06.496Z,11.50
2018-09-13T09:19:34.007Z,7.60
2018-09-13T09:22:01.647Z,8.23
2018-09-13T09:24:29.116Z,6.17
2018-09-13T09:26:56.674Z,5.63
2018-09-13T09:29:24.330Z,7.70
2018-09-13T09:31:51.676Z,9.50
2018-09-13T09:34:19.281Z,13.77
2018-09-13T09:36:46.837Z,6.80
2018-09-13T09:39:14.687Z,8.30
2018-09-13T09:41:42.684Z,9.43
2018-09-13T09:44:10.345Z,5.53
2018-09-13T09:46:38.370Z,9.13
2018-09-13T09:49:05.964Z,5.23
2018-09-13T09:51:33.510Z,5.87
2018-09-13T09:54:01.065Z,5.57
2018-09-13T09:56:28.601Z,6.50
2018-09-13T09:58:56.145Z,9.07
2018-09-13T10:01:29.406Z,9.33
2018-09-13T10:03:57.745Z,6.10
2018-09-13T10:06:25.281Z,8.03
2018-09-13T10:08:52.839Z,8.23
2018-09-13T10:11:20.432Z,8.97
2018-09-13T10:13:47.956Z,7.10
2018-09-13T10:16:21.267Z,6.40
2018-09-13T10:18:53.312Z,5.27
2018-09-13T10:21:26.541Z,7.07
2018-09-13T10:23:59.834Z,14.03
2018-09-13T10:27:32.759Z,6.27
2018-09-13T10:30:06.033Z,4.90
2018-09-13T10:32:39.155Z,6.47
2018-09-13T10:35:12.549Z,7.70
2018-09-13T10:37:45.702Z,9.13
2018-09-13T10:40:18.925Z,6.10
2018-09-13T10:42:52.197Z,7.30
2018-09-13T10:45:25.422Z,7.23
2018-09-13T10:47:58.546Z,10.53
2018-09-13T10:50:27.612Z,10.20
2018-09-13T10:52:57.830Z,7.63
2018-09-13T10:55:25.976Z,6.97
2018-09-13T10:57:53.565Z,8.90
2018-09-13T11:00:21.252Z,8.03
2018-09-13T11:02:48.882Z,6.90
2018-09-13T11:05:16.449Z,9.03
2018-09-13T11:07:43.988Z,9.00
2018-09-13T11:10:11.531Z,7.33
2018-09-13T11:12:44.731Z,6.30
2018-09-13T11:15:44.128Z,5.37
2018-09-13T11:18:11.640Z,6.00
2018-09-13T11:20:39.153Z,5.07
2018-09-13T11:23:06.761Z,6.93
2018-09-13T11:25:34.293Z,8.90
2018-09-13T11:28:01.856Z,6.70
2018-09-13T11:30:31.869Z,7.80
2018-09-13T11:32:59.425Z,6.37
2018-09-13T11:35:27.026Z,4.97
2018-09-13T11:37:54.601Z,6.10
2018-09-13T11:40:22.338Z,7.20
2018-09-13T11:42:49.797Z,7.37
2018-09-13T11:45:17.461Z,5.10
2018-09-13T11:47:45.211Z,4.83
2018-09-13T11:50:12.783Z,7.30
2018-09-13T11:52:49.259Z,7.10
2018-09-13T11:55:16.820Z,5.83
2018-09-13T11:57:44.396Z,7.77
2018-09-13T12:00:11.961Z,8.70
2018-09-13T12:02:39.423Z,4.87
2018-09-13T12:05:12.433Z,7.30
2018-09-13T12:07:39.953Z,7.30
2018-09-13T12:10:07.421Z,7.13
2018-09-13T12:12:34.933Z,7.33
2018-09-13T12:15:02.581Z,7.80
2018-09-13T12:17:30.186Z,11.57
2018-09-13T12:19:57.810Z,9.33
2018-09-13T12:22:25.519Z,10.53
2018-09-13T12:24:53.053Z,9.40
2018-09-13T12:27:20.730Z,10.70
2018-09-13T12:29:48.220Z,10.90
2018-09-13T12:32:15.699Z,13.57
2018-09-13T12:34:43.254Z,14.60
2018-09-13T12:37:10.905Z,13.30
2018-09-13T12:39:38.477Z,14.20
2018-09-13T12:42:05.993Z,10.77
2018-09-13T12:44:33.539Z,10.47
2018-09-13T12:47:01.087Z,12.70
2018-09-13T12:49:28.701Z,15.80
2018-09-13T12:51:56.134Z,11.87
2018-09-13T12:54:23.692Z,12.83
2018-09-13T12:56:51.559Z,12.33
2018-09-13T12:59:18.903Z,11.30
2018-09-13T13:01:46.469Z,12.20
2018-09-13T13:04:14.020Z,13.33
2018-09-13T13:06:41.612Z,11.70
2018-09-13T13:09:09.834Z,14.60
2018-09-13T13:11:37.414Z,9.80
2018-09-13T13:14:05.051Z,12.43
2018-09-13T13:16:32.636Z,10.87
2018-09-13T13:19:00.130Z,12.53
2018-09-13T13:21:27.668Z,10.10
2018-09-13T13:23:55.133Z,12.23
2018-09-13T13:26:22.647Z,12.10
2018-09-13T13:28:50.204Z,11.10
2018-09-13T13:31:18.374Z,11.90
2018-09-13T13:33:45.861Z,11.37
2018-09-13T13:36:13.510Z,12.37
2018-09-13T13:38:41.218Z,13.27
2018-09-13T13:41:08.878Z,12.50
2018-09-13T13:43:36.378Z,10.43
2018-09-13T13:46:03.963Z,12.60
2018-09-13T13:48:31.423Z,11.53
2018-09-13T13:50:58.968Z,13.00
2018-09-13T13:53:26.465Z,12.73
2018-09-13T13:55:54.011Z,18.43
2018-09-13T13:58:21.678Z,21.60
2018-09-13T14:00:49.640Z,16.27
2018-09-13T14:03:17.154Z,14.60
2018-09-13T14:05:44.798Z,13.90
2018-09-13T14:08:12.343Z,16.80
2018-09-13T14:10:39.858Z,15.00
2018-09-13T14:13:07.377Z,12.23
2018-09-13T14:15:34.838Z,13.27
2018-09-13T14:18:02.356Z,10.77
2018-09-13T14:20:30.036Z,15.30
2018-09-13T14:22:57.449Z,16.73
2018-09-13T14:25:24.967Z,13.13
2018-09-13T14:27:52.549Z,10.50
2018-09-13T14:30:20.070Z,12.43
2018-09-13T14:32:47.648Z,12.43
2018-09-13T14:35:15.217Z,17.20
2018-09-13T14:37:42.755Z,14.30
2018-09-13T14:40:10.359Z,12.20
2018-09-13T14:42:37.746Z,18.00
2018-09-13T14:45:05.364Z,13.47
2018-09-13T14:47:32.870Z,16.87
2018-09-13T14:50:00.391Z,15.07
2018-09-13T14:52:27.863Z,12.10
2018-09-13T14:54:55.419Z,11.97
2018-09-13T14:57:22.971Z,12.50
2018-09-13T14:59:50.444Z,14.53
2018-09-13T15:02:17.962Z,18.10
2018-09-13T15:04:45.498Z,16.87
2018-09-13T15:07:12.974Z,14.90
2018-09-13T15:09:40.560Z,15.40
2018-09-13T15:12:08.140Z,16.70
2018-09-13T15:14:35.695Z,12.53
2018-09-13T15:17:03.266Z,14.13
2018-09-13T15:19:30.852Z,14.10
2018-09-13T15:21:58.570Z,13.40
2018-09-13T15:24:26.229Z,10.47
2018-09-13T15:26:53.668Z,11.47
2018-09-13T15:29:21.287Z,15.97
2018-09-13T15:31:48.957Z,9.87
2018-09-13T15:34:16.455Z,9.10
2018-09-13T15:36:44.045Z,12.83
2018-09-13T15:39:12.515Z,13.67
2018-09-13T15:41:40.123Z,10.93
2018-09-13T15:44:07.786Z,11.10
2018-09-13T15:46:35.657Z,9.93
2018-09-13T15:49:03.518Z,8.70
2018-09-13T15:51:31.070Z,10.43
2018-09-13T15:53:58.589Z,10.63
2018-09-13T15:56:26.222Z,12.30
2018-09-13T15:58:54.813Z,14.00
2018-09-13T16:01:22.345Z,11.53
2018-09-13T16:03:49.960Z,13.27
2018-09-13T16:06:17.521Z,12.37
2018-09-13T16:08:45.145Z,14.97
2018-09-13T16:11:12.686Z,13.00
2018-09-13T16:13:40.250Z,10.77
2018-09-13T16:16:08.473Z,10.37
2018-09-13T16:18:36.001Z,7.57
2018-09-13T16:21:03.678Z,11.87
2018-09-13T16:23:31.156Z,11.03
2018-09-13T16:25:59.781Z,10.97
2018-09-13T16:28:27.390Z,10.73
2018-09-13T16:30:54.952Z,8.80
2018-09-13T16:33:22.624Z,17.23
2018-09-13T16:35:52.500Z,16.63
2018-09-13T16:38:28.892Z,11.03
2018-09-13T16:41:02.549Z,11.93
2018-09-13T16:43:35.705Z,13.53
2018-09-13T16:46:03.457Z,9.73
2018-09-13T16:48:45.813Z,20.07
2018-09-13T16:51:13.456Z,10.20
2018-09-13T16:53:41.139Z,14.60
2018-09-13T16:56:08.701Z,8.57
2018-09-13T16:58:36.457Z,11.80
2018-09-13T17:01:04.660Z,8.80
2018-09-13T17:03:32.249Z,11.60
2018-09-13T17:06:00.460Z,11.07
2018-09-13T17:08:28.144Z,13.57
2018-09-13T17:10:55.771Z,9.27
2018-09-13T17:13:23.279Z,9.00
2018-09-13T17:15:50.955Z,12.17
2018-09-13T17:18:18.547Z,11.00
2018-09-13T17:20:46.126Z,23.63
2018-09-13T17:23:13.757Z,9.13
2018-09-13T17:25:41.998Z,8.90
2018-09-13T17:28:10.479Z,13.17
2018-09-13T17:30:38.365Z,11.27
2018-09-13T17:33:06.026Z,9.17
2018-09-13T17:35:33.599Z,10.10
2018-09-13T17:38:01.883Z,11.53
2018-09-13T17:40:29.629Z,9.93
2018-09-13T17:42:57.297Z,11.27
2018-09-13T17:45:25.017Z,10.67
2018-09-13T17:47:52.578Z,9.90
2018-09-13T17:50:20.198Z,10.73
2018-09-13T17:52:48.068Z,36.07
2018-09-13T17:55:15.917Z,12.40
2018-09-13T17:57:43.523Z,13.77
2018-09-13T18:00:12.996Z,13.50
2018-09-13T18:02:40.721Z,13.80
2018-09-13T18:05:09.351Z,12.30
2018-09-13T18:07:36.939Z,11.73
2018-09-13T18:10:05.123Z,14.30
2018-09-13T18:12:32.744Z,14.67
2018-09-13T18:15:00.474Z,10.40
2018-09-13T18:17:28.360Z,12.07
2018-09-13T18:19:56.167Z,12.60
2018-09-13T18:22:23.854Z,14.17
2018-09-13T18:24:52.494Z,10.77
2018-09-13T18:27:20.686Z,12.20
2018-09-13T18:29:48.261Z,10.43
2018-09-13T18:32:15.966Z,12.10
2018-09-13T18:34:43.584Z,13.37
2018-09-13T18:37:11.354Z,13.70
2018-09-13T18:39:38.940Z,8.90
2018-09-13T18:42:07.184Z,12.47
2018-09-13T18:44:34.738Z,12.83
2018-09-13T18:47:02.503Z,11.23
2018-09-13T18:49:30.052Z,9.43
2018-09-13T18:51:57.631Z,9.10
2018-09-13T18:54:25.232Z,10.60
2018-09-13T18:56:52.761Z,8.80
2018-09-13T18:59:20.362Z,10.77
2018-09-13T19:01:47.936Z,9.80
2018-09-13T19:04:15.621Z,8.10
2018-09-13T19:06:43.212Z,9.23
2018-09-13T19:09:11.290Z,10.10
2018-09-13T19:11:39.030Z,9.63
2018-09-13T19:14:06.649Z,8.53
2018-09-13T19:16:34.538Z,13.63
2018-09-13T19:19:02.195Z,10.30
2018-09-13T19:21:30.042Z,7.20
2018-09-13T19:23:57.642Z,8.77
2018-09-13T19:26:25.364Z,10.47
2018-09-13T19:28:53.124Z,7.37
2018-09-13T19:31:20.791Z,9.50
2018-09-13T19:33:48.368Z,7.47
2018-09-13T19:36:16.535Z,8.07
2018-09-13T19:38:44.133Z,7.93
2018-09-13T19:41:13.394Z,10.67
2018-09-13T19:43:41.044Z,10.43
2018-09-13T19:46:08.788Z,8.93
2018-09-13T19:48:36.685Z,10.20
2018-09-13T19:51:04.526Z,5.77
2018-09-13T19:53:32.225Z,7.23
2018-09-13T19:55:59.861Z,5.73
2018-09-13T19:58:27.470Z,5.50
2018-09-13T20:00:54.957Z,5.70
2018-09-13T20:03:23.300Z,4.27
2018-09-13T20:05:51.021Z,6.43
2018-09-13T20:08:18.773Z,5.03
2018-09-13T20:10:46.385Z,5.50
2018-09-13T20:13:13.917Z,5.70
2018-09-13T20:15:41.560Z,7.43
2018-09-13T20:18:09.934Z,5.23
2018-09-13T20:20:38.119Z,11.20
2018-09-13T20:23:05.881Z,7.67
2018-09-13T20:25:34.087Z,5.87
2018-09-13T20:28:01.772Z,6.30
2018-09-13T20:30:29.711Z,5.00
2018-09-13T20:32:57.350Z,4.00
2018-09-13T20:35:24.984Z,5.73
2018-09-13T20:37:52.462Z,7.80
2018-09-13T20:40:20.692Z,6.03
2018-09-13T20:42:49.509Z,7.90
2018-09-13T20:45:17.022Z,5.10
2018-09-13T20:47:44.707Z,6.77
2018-09-13T20:50:14.179Z,3.70
2018-09-13T20:52:42.660Z,5.57
2018-09-13T20:55:10.242Z,4.50
2018-09-13T20:57:37.865Z,9.63
2018-09-13T21:00:05.912Z,5.03
2018-09-13T21:02:33.437Z,6.90
2018-09-13T21:05:02.276Z,4.37
2018-09-13T21:07:31.562Z,4.53
2018-09-13T21:10:00.155Z,7.83
2018-09-13T21:12:28.503Z,2.87
2018-09-13T21:14:57.253Z,4.07
2018-09-13T21:17:26.825Z,3.00
2018-09-13T21:19:54.919Z,8.93
2018-09-13T21:22:22.404Z,3.53
2018-09-13T21:24:50.141Z,10.60
2018-09-13T21:27:20.182Z,10.80
2018-09-13T21:29:48.336Z,4.93
2018-09-13T21:32:15.893Z,3.07
2018-09-13T21:34:43.388Z,7.47
2018-09-13T21:37:10.969Z,4.60
2018-09-13T21:39:39.811Z,4.00
2018-09-13T21:42:07.876Z,3.03
2018-09-13T21:44:36.360Z,4.03
2018-09-13T21:47:06.023Z,2.50
2018-09-13T21:49:33.651Z,2.90
2018-09-13T21:52:02.493Z,3.27
2018-09-13T21:54:30.049Z,3.60
2018-09-13T21:56:57.703Z,6.43
2018-09-13T21:59:26.534Z,3.90
2018-09-13T22:01:54.211Z,1.70
2018-09-13T22:04:21.971Z,3.67
2018-09-13T22:06:53.973Z,1.63
2018-09-13T22:09:21.745Z,1.47
2018-09-13T22:11:50.174Z,4.10
2018-09-13T22:14:18.040Z,10.57
2018-09-13T22:16:45.455Z,2.60
2018-09-13T22:19:13.678Z,4.70
2018-09-13T22:21:41.191Z,1.80
2018-09-13T22:24:08.750Z,1.27
2018-09-13T22:26:36.238Z,3.13
2018-09-13T22:29:04.428Z,2.23
2018-09-13T22:31:32.626Z,1.77
2018-09-13T22:34:00.264Z,0.93
2018-09-13T22:36:27.889Z,0.90
2018-09-13T22:38:55.475Z,1.13
2018-09-13T22:41:23.040Z,1.10
2018-09-13T22:43:52.363Z,1.00
2018-09-13T22:46:21.840Z,3.40
2018-09-13T22:48:49.970Z,5.33
2018-09-13T22:51:18.401Z,1.40
2018-09-13T22:53:46.223Z,6.60
2018-09-13T22:56:14.400Z,1.20
2018-09-13T22:58:41.891Z,1.40
2018-09-13T23:01:09.720Z,2.43
2018-09-13T23:03:37.352Z,1.77
2018-09-13T23:06:05.023Z,1.80
2018-09-13T23:08:32.543Z,1.77
2018-09-13T23:11:01.670Z,3.37
2018-09-13T23:13:29.320Z,1.40
2018-09-13T23:15:57.546Z,1.80
2018-09-13T23:18:25.045Z,1.87
2018-09-13T23:20:53.536Z,1.70
2018-09-13T23:23:20.996Z,1.53
2018-09-13T23:25:48.633Z,2.40
2018-09-13T23:28:16.146Z,1.20
2018-09-13T23:30:43.783Z,1.60
2018-09-13T23:33:11.353Z,1.10
2018-09-13T23:35:38.867Z,1.70
2018-09-13T23:38:06.508Z,1.53
2018-09-13T23:40:34.180Z,1.27
2018-09-13T23:43:01.575Z,1.47
2018-09-13T23:45:29.297Z,2.13
2018-09-13T23:47:57.435Z,1.00
2018-09-13T23:50:25.037Z,1.10
2018-09-13T23:52:52.550Z,1.77
2018-09-13T23:55:20.761Z,2.67
2018-09-13T23:57:48.294Z,2.13
